sensor_id;sensor_type;location;lat;lon;timestamp;pressure;altitude;pressure_sealevel;temperature;humidity
39435;BME280;66825;51.880;-0.518;2023-03-13T00:00:15;98476.50;;;13.24;41.35
39435;BME280;66825;51.880;-0.518;2023-03-13T00:02:41;98429.75;;;12.88;41.58
39435;BME280;66825;51.880;-0.518;2023-03-13T00:05:10;98491.31;;;13.35;41.49
39435;BME280;66825;51.880;-0.518;2023-03-13T00:07:36;98486.53;;;13.32;41.43
39435;BME280;66825;51.880;-0.518;2023-03-13T00:10:01;98483.03;;;13.31;41.54
39435;BME280;66825;51.880;-0.518;2023-03-13T00:12:27;98476.53;;;13.32;41.73
39435;BME280;66825;51.880;-0.518;2023-03-13T00:14:52;98471.56;;;13.34;40.81
39435;BME280;66825;51.880;-0.518;2023-03-13T00:17:17;98419.41;;;13.16;41.10
39435;BME280;66825;51.880;-0.518;2023-03-13T00:19:43;98411.78;;;13.18;41.57
39435;BME280;66825;51.880;-0.518;2023-03-13T00:22:08;98333.41;;;12.75;41.34
39435;BME280;66825;51.880;-0.518;2023-03-13T00:24:34;98287.84;;;12.55;41.56
39435;BME280;66825;51.880;-0.518;2023-03-13T00:26:59;98412.88;;;13.35;41.23
39435;BME280;66825;51.880;-0.518;2023-03-13T00:29:28;98304.34;;;12.71;41.24
39435;BME280;66825;51.880;-0.518;2023-03-13T00:31:54;98297.19;;;12.58;41.24
39435;BME280;66825;51.880;-0.518;2023-03-13T00:34:19;98273.34;;;12.51;41.40
39435;BME280;66825;51.880;-0.518;2023-03-13T00:36:45;98379.81;;;13.21;41.21
39435;BME280;66825;51.880;-0.518;2023-03-13T00:39:10;98396.66;;;13.35;41.23
39435;BME280;66825;51.880;-0.518;2023-03-13T00:41:36;98390.44;;;13.34;41.26
39435;BME280;66825;51.880;-0.518;2023-03-13T00:44:02;98362.47;;;13.22;41.44
39435;BME280;66825;51.880;-0.518;2023-03-13T00:46:29;98359.13;;;13.16;41.20
39435;BME280;66825;51.880;-0.518;2023-03-13T00:48:55;98366.59;;;13.19;41.25
39435;BME280;66825;51.880;-0.518;2023-03-13T00:51:22;98378.03;;;13.33;41.18
39435;BME280;66825;51.880;-0.518;2023-03-13T00:53:48;98375.00;;;13.26;41.74
39435;BME280;66825;51.880;-0.518;2023-03-13T00:56:15;98280.19;;;12.66;41.48
39435;BME280;66825;51.880;-0.518;2023-03-13T00:58:43;98381.53;;;13.34;41.33
39435;BME280;66825;51.880;-0.518;2023-03-13T01:01:20;98361.03;;;13.15;41.35
39435;BME280;66825;51.880;-0.518;2023-03-13T01:03:49;98403.94;;;13.34;41.42
39435;BME280;66825;51.880;-0.518;2023-03-13T01:06:18;98378.53;;;13.27;41.21
39435;BME280;66825;51.880;-0.518;2023-03-13T01:08:44;98364.53;;;13.25;41.64
39435;BME280;66825;51.880;-0.518;2023-03-13T01:11:15;98262.38;;;12.65;41.34
39435;BME280;66825;51.880;-0.518;2023-03-13T01:13:41;98297.50;;;12.74;41.58
39435;BME280;66825;51.880;-0.518;2023-03-13T01:16:10;98355.00;;;13.18;41.51
39435;BME280;66825;51.880;-0.518;2023-03-13T01:18:37;98376.13;;;13.34;41.37
39435;BME280;66825;51.880;-0.518;2023-03-13T01:21:04;98368.50;;;13.27;41.10
39435;BME280;66825;51.880;-0.518;2023-03-13T01:23:29;98380.41;;;13.35;41.18
39435;BME280;66825;51.880;-0.518;2023-03-13T01:25:56;98383.13;;;13.35;42.13
39435;BME280;66825;51.880;-0.518;2023-03-13T01:28:23;98382.31;;;13.34;41.22
39435;BME280;66825;51.880;-0.518;2023-03-13T01:30:48;98174.59;;;12.06;41.34
39435;BME280;66825;51.880;-0.518;2023-03-13T01:33:14;98374.19;;;13.34;41.24
39435;BME280;66825;51.880;-0.518;2023-03-13T01:35:40;98360.69;;;13.34;40.92
39435;BME280;66825;51.880;-0.518;2023-03-13T01:38:05;98364.19;;;13.35;40.93
39435;BME280;66825;51.880;-0.518;2023-03-13T01:40:38;98349.06;;;13.34;41.15
39435;BME280;66825;51.880;-0.518;2023-03-13T01:43:21;98350.03;;;13.29;41.73
39435;BME280;66825;51.880;-0.518;2023-03-13T01:48:48;98334.44;;;13.26;41.31
39435;BME280;66825;51.880;-0.518;2023-03-13T01:53:49;98335.56;;;13.34;41.44
39435;BME280;66825;51.880;-0.518;2023-03-13T01:56:28;98311.69;;;13.27;42.12
39435;BME280;66825;51.880;-0.518;2023-03-13T01:58:56;98325.38;;;13.31;41.76
39435;BME280;66825;51.880;-0.518;2023-03-13T02:01:23;98302.03;;;13.17;41.45
39435;BME280;66825;51.880;-0.518;2023-03-13T02:03:49;98272.16;;;13.05;41.29
39435;BME280;66825;51.880;-0.518;2023-03-13T02:06:15;98204.69;;;12.61;41.58
39435;BME280;66825;51.880;-0.518;2023-03-13T02:08:46;98314.69;;;13.34;41.60
39435;BME280;66825;51.880;-0.518;2023-03-13T02:14:07;98309.28;;;13.34;41.76
39435;BME280;66825;51.880;-0.518;2023-03-13T02:16:33;98202.44;;;12.72;41.70
39435;BME280;66825;51.880;-0.518;2023-03-13T02:19:01;98192.75;;;12.71;41.95
39435;BME280;66825;51.880;-0.518;2023-03-13T02:21:51;98284.16;;;13.34;41.88
39435;BME280;66825;51.880;-0.518;2023-03-13T02:24:42;98267.78;;;13.30;41.89
39435;BME280;66825;51.880;-0.518;2023-03-13T02:27:10;98172.56;;;12.68;41.93
39435;BME280;66825;51.880;-0.518;2023-03-13T02:29:36;98251.72;;;13.34;41.66
39435;BME280;66825;51.880;-0.518;2023-03-13T02:32:01;98278.75;;;13.34;41.65
39435;BME280;66825;51.880;-0.518;2023-03-13T02:34:31;98242.69;;;13.21;41.04
39435;BME280;66825;51.880;-0.518;2023-03-13T02:36:59;98248.25;;;13.25;41.25
39435;BME280;66825;51.880;-0.518;2023-03-13T02:39:27;98245.19;;;13.35;41.91
39435;BME280;66825;51.880;-0.518;2023-03-13T02:41:53;98227.56;;;13.29;41.46
39435;BME280;66825;51.880;-0.518;2023-03-13T02:44:19;98238.19;;;13.34;41.63
39435;BME280;66825;51.880;-0.518;2023-03-13T02:46:47;98221.47;;;13.32;41.81
39435;BME280;66825;51.880;-0.518;2023-03-13T02:49:21;98228.97;;;13.35;41.76
39435;BME280;66825;51.880;-0.518;2023-03-13T02:51:47;98220.03;;;13.34;41.46
39435;BME280;66825;51.880;-0.518;2023-03-13T02:54:17;98219.13;;;13.30;41.22
39435;BME280;66825;51.880;-0.518;2023-03-13T02:56:46;98193.69;;;13.23;41.69
39435;BME280;66825;51.880;-0.518;2023-03-13T02:59:13;98029.91;;;12.14;42.18
39435;BME280;66825;51.880;-0.518;2023-03-13T03:01:39;98208.63;;;13.29;41.20
39435;BME280;66825;51.880;-0.518;2023-03-13T03:04:05;98208.09;;;13.35;42.17
39435;BME280;66825;51.880;-0.518;2023-03-13T03:06:30;98206.50;;;13.34;41.71
39435;BME280;66825;51.880;-0.518;2023-03-13T03:08:57;98098.81;;;12.77;42.23
39435;BME280;66825;51.880;-0.518;2023-03-13T03:11:22;98201.91;;;13.35;41.32
39435;BME280;66825;51.880;-0.518;2023-03-13T03:13:48;98186.47;;;13.35;42.12
39435;BME280;66825;51.880;-0.518;2023-03-13T03:16:14;98121.34;;;12.90;41.86
39435;BME280;66825;51.880;-0.518;2023-03-13T03:18:43;98176.34;;;13.24;41.59
39435;BME280;66825;51.880;-0.518;2023-03-13T03:21:08;98154.28;;;13.13;41.46
39435;BME280;66825;51.880;-0.518;2023-03-13T03:23:35;98075.97;;;12.65;41.24
39435;BME280;66825;51.880;-0.518;2023-03-13T03:26:01;98048.56;;;12.46;41.96
39435;BME280;66825;51.880;-0.518;2023-03-13T03:28:27;98191.88;;;13.35;41.84
39435;BME280;66825;51.880;-0.518;2023-03-13T03:30:53;98154.06;;;13.27;42.26
39435;BME280;66825;51.880;-0.518;2023-03-13T03:33:20;98165.94;;;13.34;41.87
39435;BME280;66825;51.880;-0.518;2023-03-13T03:35:46;98181.06;;;13.35;41.88
39435;BME280;66825;51.880;-0.518;2023-03-13T03:38:11;98168.38;;;13.27;41.74
39435;BME280;66825;51.880;-0.518;2023-03-13T03:40:37;98160.53;;;13.34;41.82
39435;BME280;66825;51.880;-0.518;2023-03-13T03:43:02;98155.94;;;13.35;41.72
39435;BME280;66825;51.880;-0.518;2023-03-13T03:45:28;98155.78;;;13.31;41.61
39435;BME280;66825;51.880;-0.518;2023-03-13T03:47:53;98154.81;;;13.36;41.81
39435;BME280;66825;51.880;-0.518;2023-03-13T03:50:19;98042.31;;;12.63;41.21
39435;BME280;66825;51.880;-0.518;2023-03-13T03:52:44;98079.34;;;12.92;41.88
39435;BME280;66825;51.880;-0.518;2023-03-13T03:55:10;98047.66;;;12.71;41.59
39435;BME280;66825;51.880;-0.518;2023-03-13T03:57:35;98154.00;;;13.35;41.92
39435;BME280;66825;51.880;-0.518;2023-03-13T04:00:01;98135.00;;;13.23;41.66
39435;BME280;66825;51.880;-0.518;2023-03-13T04:02:26;98143.25;;;13.27;41.86
39435;BME280;66825;51.880;-0.518;2023-03-13T04:04:52;98157.53;;;13.36;41.79
39435;BME280;66825;51.880;-0.518;2023-03-13T04:07:17;98143.06;;;13.32;41.73
39435;BME280;66825;51.880;-0.518;2023-03-13T04:09:42;98072.34;;;12.91;41.74
39435;BME280;66825;51.880;-0.518;2023-03-13T04:12:08;98154.81;;;13.36;41.22
39435;BME280;66825;51.880;-0.518;2023-03-13T04:14:33;98039.13;;;12.61;41.59
39435;BME280;66825;51.880;-0.518;2023-03-13T04:16:59;98088.56;;;12.91;42.05
39435;BME280;66825;51.880;-0.518;2023-03-13T04:19:25;98157.69;;;13.31;41.85
39435;BME280;66825;51.880;-0.518;2023-03-13T04:21:51;98121.06;;;13.12;42.16
39435;BME280;66825;51.880;-0.518;2023-03-13T04:24:17;98045.78;;;12.63;41.90
39435;BME280;66825;51.880;-0.518;2023-03-13T04:26:42;98086.63;;;13.00;42.02
39435;BME280;66825;51.880;-0.518;2023-03-13T04:29:08;98132.38;;;13.35;41.42
39435;BME280;66825;51.880;-0.518;2023-03-13T04:31:33;98103.34;;;13.24;41.98
39435;BME280;66825;51.880;-0.518;2023-03-13T04:33:59;98026.31;;;12.79;42.44
39435;BME280;66825;51.880;-0.518;2023-03-13T04:36:24;97911.34;;;12.09;42.01
39435;BME280;66825;51.880;-0.518;2023-03-13T04:38:50;97980.47;;;12.61;41.81
39435;BME280;66825;51.880;-0.518;2023-03-13T04:41:15;98109.63;;;13.37;42.04
39435;BME280;66825;51.880;-0.518;2023-03-13T04:43:40;98075.84;;;13.22;42.44
39435;BME280;66825;51.880;-0.518;2023-03-13T04:46:06;98108.50;;;13.38;41.69
39435;BME280;66825;51.880;-0.518;2023-03-13T04:48:31;97986.69;;;12.62;42.26
39435;BME280;66825;51.880;-0.518;2023-03-13T04:50:57;98065.69;;;13.18;42.27
39435;BME280;66825;51.880;-0.518;2023-03-13T04:53:22;98096.88;;;13.37;41.88
39435;BME280;66825;51.880;-0.518;2023-03-13T04:55:49;97829.00;;;11.55;41.86
39435;BME280;66825;51.880;-0.518;2023-03-13T04:58:14;98080.66;;;13.37;42.24
39435;BME280;66825;51.880;-0.518;2023-03-13T05:00:40;98086.06;;;13.37;42.63
39435;BME280;66825;51.880;-0.518;2023-03-13T05:03:05;98063.72;;;13.28;41.66
39435;BME280;66825;51.880;-0.518;2023-03-13T05:05:33;98061.31;;;13.26;42.25
39435;BME280;66825;51.880;-0.518;2023-03-13T05:07:58;98065.31;;;13.29;42.28
39435;BME280;66825;51.880;-0.518;2023-03-13T05:10:24;98077.16;;;13.37;41.78
39435;BME280;66825;51.880;-0.518;2023-03-13T05:12:49;98050.91;;;13.16;42.04
39435;BME280;66825;51.880;-0.518;2023-03-13T05:15:15;98079.88;;;13.37;42.18
39435;BME280;66825;51.880;-0.518;2023-03-13T05:17:41;97947.28;;;12.61;42.01
39435;BME280;66825;51.880;-0.518;2023-03-13T05:20:07;98077.50;;;13.35;41.93
39435;BME280;66825;51.880;-0.518;2023-03-13T05:22:35;98072.53;;;13.37;41.87
39435;BME280;66825;51.880;-0.518;2023-03-13T05:25:01;98069.84;;;13.37;42.04
39435;BME280;66825;51.880;-0.518;2023-03-13T05:27:26;98033.44;;;13.13;42.13
39435;BME280;66825;51.880;-0.518;2023-03-13T05:29:52;98032.72;;;13.25;42.68
39435;BME280;66825;51.880;-0.518;2023-03-13T05:32:17;98060.94;;;13.37;42.32
39435;BME280;66825;51.880;-0.518;2023-03-13T05:34:43;98004.53;;;13.05;41.95
39435;BME280;66825;51.880;-0.518;2023-03-13T05:37:08;98063.66;;;13.37;41.88
39435;BME280;66825;51.880;-0.518;2023-03-13T05:39:34;97971.69;;;12.73;42.06
39435;BME280;66825;51.880;-0.518;2023-03-13T05:41:59;98049.53;;;13.31;42.01
39435;BME280;66825;51.880;-0.518;2023-03-13T05:44:24;98064.44;;;13.37;42.06
39435;BME280;66825;51.880;-0.518;2023-03-13T05:46:50;97982.81;;;12.93;42.06
39435;BME280;66825;51.880;-0.518;2023-03-13T05:49:15;98070.63;;;13.38;42.58
39435;BME280;66825;51.880;-0.518;2023-03-13T05:51:41;98053.59;;;13.37;42.04
39435;BME280;66825;51.880;-0.518;2023-03-13T05:54:06;98032.78;;;13.38;42.18
39435;BME280;66825;51.880;-0.518;2023-03-13T05:56:32;97997.47;;;13.13;42.95
39435;BME280;66825;51.880;-0.518;2023-03-13T05:58:57;98020.38;;;13.37;42.42
39435;BME280;66825;51.880;-0.518;2023-03-13T06:01:22;97936.34;;;12.78;42.43
39435;BME280;66825;51.880;-0.518;2023-03-13T06:03:48;97951.84;;;12.90;42.00
39435;BME280;66825;51.880;-0.518;2023-03-13T06:06:13;97910.59;;;12.60;42.69
39435;BME280;66825;51.880;-0.518;2023-03-13T06:08:39;98018.78;;;13.35;42.90
39435;BME280;66825;51.880;-0.518;2023-03-13T06:11:04;97992.88;;;13.13;42.21
39435;BME280;66825;51.880;-0.518;2023-03-13T06:13:30;98028.69;;;13.31;42.62
39435;BME280;66825;51.880;-0.518;2023-03-13T06:15:57;98054.41;;;13.38;42.18
39435;BME280;66825;51.880;-0.518;2023-03-13T06:18:23;97954.97;;;12.80;42.36
39435;BME280;66825;51.880;-0.518;2023-03-13T06:20:49;98047.09;;;13.38;42.70
39435;BME280;66825;51.880;-0.518;2023-03-13T06:23:15;97921.53;;;12.63;42.00
39435;BME280;66825;51.880;-0.518;2023-03-13T06:25:40;98040.59;;;13.39;42.68
39435;BME280;66825;51.880;-0.518;2023-03-13T06:28:06;97974.47;;;13.07;42.05
39435;BME280;66825;51.880;-0.518;2023-03-13T06:30:31;98011.94;;;13.38;42.63
39435;BME280;66825;51.880;-0.518;2023-03-13T06:32:57;98010.06;;;13.39;42.50
39435;BME280;66825;51.880;-0.518;2023-03-13T06:35:23;98006.53;;;13.38;42.46
39435;BME280;66825;51.880;-0.518;2023-03-13T06:37:48;97973.03;;;13.30;42.67
39435;BME280;66825;51.880;-0.518;2023-03-13T06:40:14;97909.59;;;12.85;42.29
39435;BME280;66825;51.880;-0.518;2023-03-13T06:42:39;97963.66;;;13.28;42.39
39435;BME280;66825;51.880;-0.518;2023-03-13T06:45:05;97963.25;;;13.38;42.27
39435;BME280;66825;51.880;-0.518;2023-03-13T06:47:31;97969.47;;;13.39;42.53
39435;BME280;66825;51.880;-0.518;2023-03-13T06:49:57;97951.59;;;13.25;42.48
39435;BME280;66825;51.880;-0.518;2023-03-13T06:52:23;97875.00;;;12.79;42.44
39435;BME280;66825;51.880;-0.518;2023-03-13T06:54:48;97961.38;;;13.39;42.71
39435;BME280;66825;51.880;-0.518;2023-03-13T06:57:14;97959.75;;;13.38;42.76
39435;BME280;66825;51.880;-0.518;2023-03-13T06:59:39;97953.41;;;13.33;42.07
39435;BME280;66825;51.880;-0.518;2023-03-13T07:02:05;97955.97;;;13.39;42.71
39435;BME280;66825;51.880;-0.518;2023-03-13T07:04:30;97955.97;;;13.39;42.84
39435;BME280;66825;51.880;-0.518;2023-03-13T07:06:56;97957.84;;;13.38;42.80
39435;BME280;66825;51.880;-0.518;2023-03-13T07:09:21;97943.16;;;13.27;43.02
39435;BME280;66825;51.880;-0.518;2023-03-13T07:11:47;97850.44;;;12.71;42.96
39435;BME280;66825;51.880;-0.518;2023-03-13T07:14:13;97758.88;;;12.15;43.38
39435;BME280;66825;51.880;-0.518;2023-03-13T07:16:38;97953.25;;;13.39;42.61
39435;BME280;66825;51.880;-0.518;2023-03-13T07:19:03;97956.75;;;13.39;42.83
39435;BME280;66825;51.880;-0.518;2023-03-13T07:21:29;97947.84;;;13.39;42.25
39435;BME280;66825;51.880;-0.518;2023-03-13T07:23:54;97842.78;;;12.74;42.88
39435;BME280;66825;51.880;-0.518;2023-03-13T07:26:20;97937.66;;;13.35;43.03
39435;BME280;66825;51.880;-0.518;2023-03-13T07:28:45;97938.94;;;13.38;42.43
39435;BME280;66825;51.880;-0.518;2023-03-13T07:31:18;97860.94;;;12.85;43.15
39435;BME280;66825;51.880;-0.518;2023-03-13T07:33:44;97951.00;;;13.41;42.77
39435;BME280;66825;51.880;-0.518;2023-03-13T07:36:11;97946.84;;;13.43;42.87
39435;BME280;66825;51.880;-0.518;2023-03-13T07:38:37;97747.56;;;12.22;43.78
39435;BME280;66825;51.880;-0.518;2023-03-13T07:41:03;97942.47;;;13.51;43.85
39435;BME280;66825;51.880;-0.518;2023-03-13T07:43:29;97934.47;;;13.55;44.50
39435;BME280;66825;51.880;-0.518;2023-03-13T07:46:03;97930.31;;;13.57;44.38
39435;BME280;66825;51.880;-0.518;2023-03-13T07:48:39;97943.63;;;13.62;44.49
39435;BME280;66825;51.880;-0.518;2023-03-13T07:51:07;97925.94;;;13.65;44.02
39435;BME280;66825;51.880;-0.518;2023-03-13T07:53:35;97948.19;;;13.83;44.42
39435;BME280;66825;51.880;-0.518;2023-03-13T07:56:06;97924.41;;;13.89;44.04
39435;BME280;66825;51.880;-0.518;2023-03-13T07:58:34;97916.84;;;13.82;44.51
39435;BME280;66825;51.880;-0.518;2023-03-13T08:01:01;97946.88;;;14.02;44.44
39435;BME280;66825;51.880;-0.518;2023-03-13T08:03:31;97842.38;;;13.39;44.15
39435;BME280;66825;51.880;-0.518;2023-03-13T08:06:11;97863.72;;;13.65;44.15
39435;BME280;66825;51.880;-0.518;2023-03-13T08:08:37;97826.63;;;13.53;43.75
39435;BME280;66825;51.880;-0.518;2023-03-13T08:11:05;97906.84;;;14.07;43.80
39435;BME280;66825;51.880;-0.518;2023-03-13T08:13:32;97831.38;;;13.69;44.11
39435;BME280;66825;51.880;-0.518;2023-03-13T08:16:08;97943.72;;;14.37;44.24
39435;BME280;66825;51.880;-0.518;2023-03-13T08:18:36;97883.25;;;14.20;43.80
39435;BME280;66825;51.880;-0.518;2023-03-13T08:21:07;97823.00;;;13.86;44.43
39435;BME280;66825;51.880;-0.518;2023-03-13T08:23:33;97877.56;;;14.50;44.32
39435;BME280;66825;51.880;-0.518;2023-03-13T08:26:08;97922.72;;;14.71;44.37
39435;BME280;66825;51.880;-0.518;2023-03-13T08:28:34;97928.38;;;14.78;44.61
39435;BME280;66825;51.880;-0.518;2023-03-13T08:33:36;97920.28;;;14.94;44.63
39435;BME280;66825;51.880;-0.518;2023-03-13T08:36:13;97928.28;;;15.03;44.54
39435;BME280;66825;51.880;-0.518;2023-03-13T08:38:40;97870.31;;;14.79;44.68
39435;BME280;66825;51.880;-0.518;2023-03-13T08:41:14;97911.19;;;15.15;44.68
39435;BME280;66825;51.880;-0.518;2023-03-13T08:43:40;97803.84;;;14.57;44.50
39435;BME280;66825;51.880;-0.518;2023-03-13T08:46:06;97814.88;;;14.64;44.44
39435;BME280;66825;51.880;-0.518;2023-03-13T08:48:31;97894.69;;;15.20;44.54
39435;BME280;66825;51.880;-0.518;2023-03-13T08:53:36;97921.09;;;15.51;44.78
39435;BME280;66825;51.880;-0.518;2023-03-13T08:56:02;97906.63;;;15.47;44.79
39435;BME280;66825;51.880;-0.518;2023-03-13T08:58:29;97809.81;;;14.91;45.06
39435;BME280;66825;51.880;-0.518;2023-03-13T09:01:10;97917.63;;;15.67;44.84
39435;BME280;66825;51.880;-0.518;2023-03-13T09:03:36;97908.84;;;15.73;45.16
39435;BME280;66825;51.880;-0.518;2023-03-13T09:06:02;97922.16;;;15.79;44.91
39435;BME280;66825;51.880;-0.518;2023-03-13T09:08:31;97839.13;;;15.30;45.12
39435;BME280;66825;51.880;-0.518;2023-03-13T09:11:02;97910.28;;;15.83;44.96
39435;BME280;66825;51.880;-0.518;2023-03-13T09:13:28;97933.00;;;15.91;44.64
39435;BME280;66825;51.880;-0.518;2023-03-13T09:15:55;97935.44;;;15.96;44.74
39435;BME280;66825;51.880;-0.518;2023-03-13T09:18:20;97913.44;;;15.85;44.97
39435;BME280;66825;51.880;-0.518;2023-03-13T09:20:46;97852.13;;;15.52;44.94
39435;BME280;66825;51.880;-0.518;2023-03-13T09:23:11;97929.22;;;16.12;44.60
39435;BME280;66825;51.880;-0.518;2023-03-13T09:25:37;97939.81;;;16.17;44.83
39435;BME280;66825;51.880;-0.518;2023-03-13T09:28:03;97848.00;;;15.59;45.07
39435;BME280;66825;51.880;-0.518;2023-03-13T09:30:29;97940.53;;;16.30;44.99
39435;BME280;66825;51.880;-0.518;2023-03-13T09:32:54;97931.59;;;16.29;45.00
39435;BME280;66825;51.880;-0.518;2023-03-13T09:35:20;97844.25;;;15.79;44.79
39435;BME280;66825;51.880;-0.518;2023-03-13T09:37:45;97906.44;;;16.16;44.57
39435;BME280;66825;51.880;-0.518;2023-03-13T09:40:16;97933.56;;;16.48;44.68
39435;BME280;66825;51.880;-0.518;2023-03-13T09:42:55;97920.97;;;16.40;44.79
39435;BME280;66825;51.880;-0.518;2023-03-13T09:45:34;97938.47;;;16.59;44.79
39435;BME280;66825;51.880;-0.518;2023-03-13T09:48:05;97932.75;;;16.64;44.51
39435;BME280;66825;51.880;-0.518;2023-03-13T09:50:39;97906.81;;;16.50;44.81
39435;BME280;66825;51.880;-0.518;2023-03-13T09:53:40;97927.91;;;16.73;44.76
39435;BME280;66825;51.880;-0.518;2023-03-13T09:56:15;97918.81;;;16.65;45.12
39435;BME280;66825;51.880;-0.518;2023-03-13T09:58:48;97940.94;;;16.83;44.81
39435;BME280;66825;51.880;-0.518;2023-03-13T10:01:16;97780.50;;;15.89;45.02
39435;BME280;66825;51.880;-0.518;2023-03-13T10:03:57;97846.09;;;16.43;44.76
39435;BME280;66825;51.880;-0.518;2023-03-13T10:06:26;97936.25;;;17.00;44.84
39435;BME280;66825;51.880;-0.518;2023-03-13T10:08:53;97941.75;;;17.04;44.64
39435;BME280;66825;51.880;-0.518;2023-03-13T10:11:25;97829.16;;;16.49;44.87
39435;BME280;66825;51.880;-0.518;2023-03-13T10:16:34;97920.94;;;17.11;46.08
39435;BME280;66825;51.880;-0.518;2023-03-13T10:19:26;97922.31;;;17.21;46.87
39435;BME280;66825;51.880;-0.518;2023-03-13T10:21:56;97833.72;;;16.65;47.25
39435;BME280;66825;51.880;-0.518;2023-03-13T10:26:55;97929.25;;;17.38;46.38
39435;BME280;66825;51.880;-0.518;2023-03-13T10:29:26;97923.59;;;17.47;46.25
39435;BME280;66825;51.880;-0.518;2023-03-13T10:32:00;97914.50;;;17.39;46.08
39435;BME280;66825;51.880;-0.518;2023-03-13T10:34:29;97926.50;;;17.58;45.53
39435;BME280;66825;51.880;-0.518;2023-03-13T10:36:59;97909.00;;;17.59;45.17
39435;BME280;66825;51.880;-0.518;2023-03-13T10:39:29;97944.19;;;17.68;45.50
39435;BME280;66825;51.880;-0.518;2023-03-13T10:42:42;97930.25;;;17.73;44.99
39435;BME280;66825;51.880;-0.518;2023-03-13T10:44:42;97907.59;;;17.65;45.16
39435;BME280;66825;51.880;-0.518;2023-03-13T10:47:11;97900.31;;;17.73;44.84
39435;BME280;66825;51.880;-0.518;2023-03-13T10:49:49;97901.22;;;17.81;45.00
39435;BME280;66825;51.880;-0.518;2023-03-13T10:54:59;97828.25;;;17.43;44.36
39435;BME280;66825;51.880;-0.518;2023-03-13T11:00:34;97900.75;;;17.98;44.19
39435;BME280;66825;51.880;-0.518;2023-03-13T11:03:04;97820.56;;;17.49;44.59
39435;BME280;66825;51.880;-0.518;2023-03-13T11:05:36;97917.06;;;18.21;44.71
39435;BME280;66825;51.880;-0.518;2023-03-13T11:08:18;97930.41;;;18.27;44.92
39435;BME280;66825;51.880;-0.518;2023-03-13T11:10:56;97897.16;;;18.17;44.43
39435;BME280;66825;51.880;-0.518;2023-03-13T11:13:34;97932.50;;;18.37;43.83
39435;BME280;66825;51.880;-0.518;2023-03-13T11:16:21;97830.41;;;17.81;44.14
39435;BME280;66825;51.880;-0.518;2023-03-13T11:21:24;97924.81;;;18.42;43.66
39435;BME280;66825;51.880;-0.518;2023-03-13T11:23:58;97934.22;;;18.49;43.34
39435;BME280;66825;51.880;-0.518;2023-03-13T11:26:35;97937.38;;;18.51;43.49
39435;BME280;66825;51.880;-0.518;2023-03-13T11:29:42;97834.47;;;17.90;43.23
39435;BME280;66825;51.880;-0.518;2023-03-13T11:31:59;97928.72;;;18.45;43.00
39435;BME280;66825;51.880;-0.518;2023-03-13T11:34:42;97847.78;;;17.96;43.00
39435;BME280;66825;51.880;-0.518;2023-03-13T11:37:12;97893.41;;;18.25;43.31
39435;BME280;66825;51.880;-0.518;2023-03-13T11:40:05;97949.13;;;18.55;43.47
39435;BME280;66825;51.880;-0.518;2023-03-13T11:48:34;97925.97;;;18.68;43.55
39435;BME280;66825;51.880;-0.518;2023-03-13T11:51:02;97936.88;;;18.68;43.59
39435;BME280;66825;51.880;-0.518;2023-03-13T11:56:30;97923.38;;;18.79;43.48
39435;BME280;66825;51.880;-0.518;2023-03-13T12:01:36;97833.41;;;18.22;42.72
39435;BME280;66825;51.880;-0.518;2023-03-13T12:04:24;97928.88;;;18.83;42.83
39435;BME280;66825;51.880;-0.518;2023-03-13T12:07:01;97925.72;;;18.81;42.97
39435;BME280;66825;51.880;-0.518;2023-03-13T12:09:46;97904.19;;;18.72;43.11
39435;BME280;66825;51.880;-0.518;2023-03-13T12:15:13;97910.13;;;18.81;43.09
39435;BME280;66825;51.880;-0.518;2023-03-13T12:17:56;97902.00;;;18.85;43.21
39435;BME280;66825;51.880;-0.518;2023-03-13T12:26:13;97915.47;;;18.97;42.53
39435;BME280;66825;51.880;-0.518;2023-03-13T12:34:20;97815.03;;;18.46;42.49
39435;BME280;66825;51.880;-0.518;2023-03-13T12:36:51;97884.06;;;18.84;42.45
39435;BME280;66825;51.880;-0.518;2023-03-13T12:39:29;97824.13;;;18.57;42.42
39435;BME280;66825;51.880;-0.518;2023-03-13T12:44:49;97815.13;;;18.53;42.25
39435;BME280;66825;51.880;-0.518;2023-03-13T12:50:38;97874.78;;;18.88;42.42
39435;BME280;66825;51.880;-0.518;2023-03-13T12:53:44;97787.13;;;18.25;42.37
39435;BME280;66825;51.880;-0.518;2023-03-13T12:58:54;97880.94;;;18.82;42.13
39435;BME280;66825;51.880;-0.518;2023-03-13T13:04:16;97872.72;;;18.78;41.93
39435;BME280;66825;51.880;-0.518;2023-03-13T13:09:31;97854.97;;;18.61;42.34
39435;BME280;66825;51.880;-0.518;2023-03-13T13:12:03;97763.59;;;18.14;42.11
39435;BME280;66825;51.880;-0.518;2023-03-13T13:17:22;97773.31;;;18.11;42.20
39435;BME280;66825;51.880;-0.518;2023-03-13T13:19:50;97866.78;;;18.72;42.37
39435;BME280;66825;51.880;-0.518;2023-03-13T13:32:49;97836.59;;;18.58;42.45
39435;BME280;66825;51.880;-0.518;2023-03-13T13:37:46;97838.28;;;18.66;42.44
39435;BME280;66825;51.880;-0.518;2023-03-13T13:40:22;97849.91;;;18.63;42.54
39435;BME280;66825;51.880;-0.518;2023-03-13T13:43:04;97762.25;;;18.00;42.65
39435;BME280;66825;51.880;-0.518;2023-03-13T13:45:32;97849.50;;;18.61;42.58
39435;BME280;66825;51.880;-0.518;2023-03-13T14:01:30;97834.69;;;18.62;42.63
39435;BME280;66825;51.880;-0.518;2023-03-13T14:04:12;97795.44;;;18.36;42.84
39435;BME280;66825;51.880;-0.518;2023-03-13T14:06:41;97667.88;;;17.58;42.84
39435;BME280;66825;51.880;-0.518;2023-03-13T14:09:14;97774.88;;;18.12;42.64
39435;BME280;66825;51.880;-0.518;2023-03-13T14:11:44;97815.63;;;18.62;42.80
39435;BME280;66825;51.880;-0.518;2023-03-13T14:14:14;97815.63;;;18.62;42.71
39435;BME280;66825;51.880;-0.518;2023-03-13T14:16:43;97820.72;;;18.64;42.69
39435;BME280;66825;51.880;-0.518;2023-03-13T14:19:20;97803.19;;;18.65;42.99
39435;BME280;66825;51.880;-0.518;2023-03-13T14:21:46;97809.44;;;18.65;42.72
39435;BME280;66825;51.880;-0.518;2023-03-13T14:24:15;97819.97;;;18.67;42.80
39435;BME280;66825;51.880;-0.518;2023-03-13T14:26:43;97773.72;;;18.44;42.85
39435;BME280;66825;51.880;-0.518;2023-03-13T14:29:18;97805.97;;;18.68;42.98
39435;BME280;66825;51.880;-0.518;2023-03-13T14:31:54;97708.28;;;18.09;42.76
39435;BME280;66825;51.880;-0.518;2023-03-13T14:34:20;97812.97;;;18.69;42.77